Time;durP1;ratioP1;P1;durP2;ratioP2;P2;SDS_P1;SDS_P2;PMS_P1;PMS_P2;Temp;Humidity;BMP_temperature;BMP_pressure;BME280_temperature;BME280_humidity;BME280_pressure;Samples;Min_cycle;Max_cycle;Signal;HPM_P1;HPM_P2
2022/04/28 00:00:06;;;;;;;7.57;3.77;;;9.80;99.90;;;;;;5001462;28;20241;-80
2022/04/28 00:02:33;;;;;;;5.70;3.20;;;9.70;99.90;;;;;;5003173;28;20750;-81
2022/04/28 00:04:59;;;;;;;5.97;3.30;;;9.50;99.90;;;;;;4986627;28;20622;-81
2022/04/28 00:07:25;;;;;;;6.40;3.17;;;9.70;99.90;;;;;;5006067;28;20240;-81
2022/04/28 00:09:51;;;;;;;5.83;3.03;;;9.50;99.90;;;;;;4997921;28;20662;-81
2022/04/28 00:12:17;;;;;;;4.63;2.80;;;;;;;;;;4994034;28;20249;-81
2022/04/28 00:14:43;;;;;;;5.27;2.73;;;9.90;99.90;;;;;;4994189;28;20252;-81
2022/04/28 00:17:09;;;;;;;4.72;2.88;;;9.80;99.90;;;;;;4977413;28;20233;-81
2022/04/28 00:19:35;;;;;;;9.80;3.43;;;9.70;99.90;;;;;;4995851;28;20182;-81
2022/04/28 00:22:01;;;;;;;3.73;3.03;;;;;;;;;;4999615;28;20616;-85
2022/04/28 00:24:27;;;;;;;5.73;2.97;;;9.60;99.90;;;;;;4995427;28;20236;-80
2022/04/28 00:26:53;;;;;;;3.60;2.10;;;9.50;99.90;;;;;;4995985;28;20190;-80
2022/04/28 00:29:18;;;;;;;4.87;2.80;;;9.50;99.90;;;;;;5002531;28;20196;-81
2022/04/28 00:31:44;;;;;;;4.93;2.33;;;9.20;99.90;;;;;;5017938;28;20190;-80
2022/04/28 00:34:11;;;;;;;3.77;2.53;;;;;;;;;;5017759;28;20166;-81
2022/04/28 00:36:36;;;;;;;4.97;2.53;;;9.30;99.90;;;;;;5001397;28;20209;-80
2022/04/28 00:39:03;;;;;;;5.40;2.53;;;9.50;99.90;;;;;;4994064;28;20174;-80
2022/04/28 00:41:28;;;;;;;3.63;2.10;;;9.50;99.90;;;;;;4979463;28;20178;-81
2022/04/28 00:43:54;;;;;;;7.87;2.67;;;9.20;99.90;;;;;;5008384;28;20181;-80
2022/04/28 00:46:21;;;;;;;5.43;2.47;;;9.20;99.90;;;;;;5017591;28;20170;-81
2022/04/28 00:51:34;;;;;;;5.23;2.57;;;9.40;99.90;;;;;;5015102;28;20182;-80
2022/04/28 00:54:02;;;;;;;5.20;2.73;;;9.70;99.90;;;;;;4995208;28;20184;-80
2022/04/28 00:56:28;;;;;;;2.80;1.80;;;;;;;;;;4980100;28;20212;-81
2022/04/28 00:58:56;;;;;;;2.93;2.07;;;9.30;99.90;;;;;;4997696;28;20190;-80
2022/04/28 01:01:22;;;;;;;2.47;1.87;;;9.20;99.90;;;;;;4997357;28;20178;-81
2022/04/28 01:03:48;;;;;;;2.47;2.07;;;9.10;99.90;;;;;;4980373;28;20189;-80
2022/04/28 01:06:15;;;;;;;4.77;2.63;;;;;;;;;;4997015;28;20178;-81
2022/04/28 01:08:41;;;;;;;3.30;1.87;;;;;;;;;;4997401;28;20212;-81
2022/04/28 01:11:08;;;;;;;4.10;2.40;;;9.60;99.90;;;;;;4997179;28;20182;-81
2022/04/28 01:13:34;;;;;;;3.47;2.40;;;;;;;;;;4997228;28;20221;-81
2022/04/28 01:16:01;;;;;;;4.47;2.23;;;9.20;99.90;;;;;;4997128;28;20713;-81
2022/04/28 01:18:27;;;;;;;4.13;2.43;;;;;;;;;;4997291;28;20557;-81
2022/04/28 01:20:53;;;;;;;4.07;2.50;;;9.30;99.90;;;;;;4997177;28;20626;-81
2022/04/28 01:23:18;;;;;;;3.77;2.43;;;9.30;99.90;;;;;;4996918;28;20174;-80
2022/04/28 01:25:44;;;;;;;4.37;2.77;;;9.20;99.90;;;;;;4963549;28;20186;-81
2022/04/28 01:28:11;;;;;;;4.57;2.27;;;8.90;99.90;;;;;;4996628;28;20182;-81
2022/04/28 01:30:37;;;;;;;5.80;3.00;;;;;;;;;;4996777;28;20217;-81
2022/04/28 01:33:04;;;;;;;5.60;3.43;;;9.10;99.90;;;;;;4997064;28;20182;-80
2022/04/28 01:35:30;;;;;;;6.10;2.53;;;8.90;99.90;;;;;;4978897;28;20625;-81
2022/04/28 01:37:56;;;;;;;6.60;2.47;;;9.10;99.90;;;;;;4996754;28;20261;-80
2022/04/28 01:40:22;;;;;;;4.43;3.27;;;9.00;99.90;;;;;;4996271;28;20665;-80
2022/04/28 01:42:49;;;;;;;5.13;2.90;;;9.10;99.90;;;;;;4996535;28;20190;-80
2022/04/28 01:45:15;;;;;;;4.50;2.40;;;;;;;;;;4996180;28;20178;-81
2022/04/28 01:47:41;;;;;;;3.00;2.23;;;;;;;;;;4995484;28;20548;-80
2022/04/28 01:50:10;;;;;;;5.73;2.63;;;8.80;99.90;;;;;;4996575;28;20304;-80
2022/04/28 01:55:21;;;;;;;4.40;2.27;;;;;;;;;;4981811;28;20182;-81
2022/04/28 01:57:47;;;;;;;3.50;2.50;;;8.80;99.90;;;;;;4979387;28;20182;-81
2022/04/28 02:00:14;;;;;;;6.13;2.70;;;8.80;99.90;;;;;;4994927;28;20543;-81
2022/04/28 02:02:40;;;;;;;4.30;2.43;;;;;;;;;;4996547;28;20228;-80
2022/04/28 02:05:07;;;;;;;3.73;2.63;;;8.70;99.90;;;;;;4978592;28;20209;-80
2022/04/28 02:07:33;;;;;;;6.13;2.50;;;;;;;;;;4995540;28;20690;-81
2022/04/28 02:09:59;;;;;;;2.63;1.60;;;;;;;;;;4996337;28;20209;-80
2022/04/28 02:12:26;;;;;;;3.63;2.07;;;9.00;99.90;;;;;;4996032;28;20178;-80
2022/04/28 02:14:53;;;;;;;3.27;2.50;;;9.00;99.90;;;;;;4996397;28;20201;-80
2022/04/28 02:17:33;;;;;;;3.70;2.73;;;9.30;99.90;;;;;;4994727;28;20212;-81
2022/04/28 02:20:03;;;;;;;3.40;2.27;;;8.90;99.90;;;;;;4996238;28;20177;-80
2022/04/28 02:22:29;;;;;;;3.17;2.13;;;;;;;;;;4978514;28;20177;-80
2022/04/28 02:24:55;;;;;;;6.07;2.67;;;8.90;99.90;;;;;;4995097;28;20193;-80
2022/04/28 02:27:21;;;;;;;4.67;2.33;;;9.00;99.90;;;;;;4994617;28;20542;-81
2022/04/28 02:29:47;;;;;;;3.73;2.43;;;;;;;;;;4996208;28;20260;-81
2022/04/28 02:32:13;;;;;;;3.77;2.23;;;;;;;;;;4995777;28;20186;-80
2022/04/28 02:34:38;;;;;;;3.57;2.20;;;8.80;99.90;;;;;;4978180;28;20631;-81
2022/04/28 02:37:04;;;;;;;6.80;3.13;;;;;;;;;;4978350;28;20312;-80
2022/04/28 02:39:30;;;;;;;6.67;2.33;;;9.00;99.90;;;;;;4995512;28;20221;-81
2022/04/28 02:41:56;;;;;;;2.83;2.03;;;;;;;;;;4978486;28;20220;-81
2022/04/28 02:44:22;;;;;;;3.87;2.30;;;8.70;99.90;;;;;;4995437;28;20233;-81
2022/04/28 02:46:48;;;;;;;3.63;2.37;;;8.40;99.90;;;;;;4995748;28;20235;-81
2022/04/28 02:49:14;;;;;;;4.13;2.57;;;;;;;;;;4978188;28;20217;-80
2022/04/28 02:51:40;;;;;;;3.53;2.47;;;;;;;;;;4995302;28;20178;-81
2022/04/28 02:54:06;;;;;;;10.37;2.70;;;;;;;;;;4995373;28;20189;-80
2022/04/28 02:56:33;;;;;;;2.87;2.00;;;;;;;;;;4994982;28;20181;-80
2022/04/28 02:58:59;;;;;;;5.27;3.27;;;;;;;;;;4995864;28;20268;-80
2022/04/28 03:01:25;;;;;;;4.80;3.03;;;;;;;;;;4977682;28;20181;-80
2022/04/28 03:03:51;;;;;;;3.23;2.77;;;;;;;;;;4995557;28;20253;-80
2022/04/28 03:11:47;;;;;;;3.60;2.40;;;;;;;;;;4995442;28;20189;-81
2022/04/28 03:14:14;;;;;;;4.13;2.43;;;;;;;;;;4995287;28;20178;-80
2022/04/28 03:16:40;;;;;;;5.23;2.57;;;;;;;;;;4995093;28;20204;-80
2022/04/28 03:19:06;;;;;;;4.23;2.87;;;;;;;;;;4994761;28;20242;-80
2022/04/28 03:21:32;;;;;;;4.47;2.70;;;8.30;99.90;;;;;;4994854;28;20627;-80
2022/04/28 03:23:58;;;;;;;4.70;2.93;;;;;;;;;;4995162;28;20182;-80
2022/04/28 03:26:24;;;;;;;4.23;2.53;;;;;;;;;;4994675;28;20209;-81
2022/04/28 03:28:50;;;;;;;3.27;2.97;;;;;;;;;;4977348;28;20670;-80
2022/04/28 03:31:16;;;;;;;8.03;3.00;;;;;;;;;;4993186;28;20197;-81
2022/04/28 03:33:42;;;;;;;5.43;3.33;;;;;;;;;;4984417;28;20189;-79
2022/04/28 03:38:53;;;;;;;4.90;3.40;;;;;;;;;;4993227;28;20204;-80
2022/04/28 03:41:19;;;;;;;4.23;2.47;;;;;;;;;;4975393;28;20718;-80
2022/04/28 03:43:45;;;;;;;2.70;2.23;;;;;;;;;;4992320;28;20186;-81
2022/04/28 03:46:15;;;;;;;5.97;4.17;;;;;;;;;;4987564;28;20674;-81
2022/04/28 03:48:41;;;;;;;7.60;3.50;;;;;;;;;;4978284;28;20237;-81
2022/04/28 03:51:07;;;;;;;4.60;2.90;;;;;;;;;;4990194;28;20185;-80
2022/04/28 03:53:33;;;;;;;6.10;3.30;;;;;;;;;;4989389;28;20653;-80
2022/04/28 03:55:59;;;;;;;7.00;3.77;;;8.60;99.90;;;;;;4992911;28;20288;-80
2022/04/28 03:58:25;;;;;;;7.00;4.47;;;;;;;;;;4958706;28;20237;-81
2022/04/28 04:00:52;;;;;;;5.67;4.13;;;8.70;99.90;;;;;;4974768;28;20197;-81
2022/04/28 04:03:19;;;;;;;5.33;2.90;;;;;;;;;;4992252;28;20288;-81
2022/04/28 04:05:45;;;;;;;8.87;3.93;;;;;;;;;;4975710;28;20185;-81
2022/04/28 04:08:12;;;;;;;7.40;3.90;;;;;;;;;;4992981;28;20192;-80
2022/04/28 04:10:38;;;;;;;7.00;3.33;;;;;;;;;;4992066;28;20608;-80
2022/04/28 04:13:04;;;;;;;4.20;2.47;;;8.60;99.90;;;;;;4976474;28;20640;-80
2022/04/28 04:15:32;;;;;;;5.33;3.00;;;;;;;;;;4955864;28;20810;-79
2022/04/28 04:17:58;;;;;;;7.27;2.80;;;;;;;;;;4973069;28;20201;-80
2022/04/28 04:20:24;;;;;;;6.37;3.00;;;;;;;;;;4979264;28;20193;-81
2022/04/28 04:22:50;;;;;;;3.50;2.60;;;;;;;;;;4963070;28;20253;-81
2022/04/28 04:25:16;;;;;;;3.33;2.40;;;;;;;;;;4972897;28;20201;-81
2022/04/28 04:27:42;;;;;;;5.13;2.13;;;;;;;;;;4972511;28;20190;-83
2022/04/28 04:32:53;;;;;;;2.93;2.10;;;;;;;;;;4974834;28;20774;-81
2022/04/28 04:35:19;;;;;;;4.93;2.70;;;;;;;;;;4968469;28;20231;-81
2022/04/28 04:37:44;;;;;;;2.90;2.10;;;9.00;99.90;;;;;;4973807;28;20285;-80
2022/04/28 04:40:11;;;;;;;3.00;2.23;;;9.30;99.90;;;;;;4973196;28;20194;-81
2022/04/28 04:42:37;;;;;;;3.17;1.90;;;8.90;99.90;;;;;;4991011;28;20200;-81
2022/04/28 04:45:03;;;;;;;2.17;1.77;;;9.40;99.90;;;;;;4988638;28;20190;-81
2022/04/28 04:47:29;;;;;;;5.60;2.97;;;;;;;;;;4973557;28;20190;-84
2022/04/28 04:49:55;;;;;;;4.20;2.53;;;9.10;99.90;;;;;;4983166;28;20233;-81
2022/04/28 04:52:20;;;;;;;3.03;1.93;;;9.50;99.90;;;;;;4989341;28;20272;-81
2022/04/28 04:54:47;;;;;;;2.53;1.73;;;;;;;;;;4985736;28;20190;-81
2022/04/28 04:57:13;;;;;;;2.83;2.00;;;;;;;;;;4972638;28;20692;-81
2022/04/28 04:59:39;;;;;;;4.10;2.00;;;;;;;;;;4987533;28;20197;-81
2022/04/28 05:02:04;;;;;;;4.03;2.60;;;9.20;99.90;;;;;;4990653;28;20272;-81
2022/04/28 05:04:30;;;;;;;5.00;2.20;;;;;;;;;;4986360;28;20236;-88
2022/04/28 05:06:56;;;;;;;4.37;2.13;;;;;;;;;;4976675;28;20186;-81
2022/04/28 05:09:22;;;;;;;3.30;1.83;;;9.60;99.90;;;;;;4991708;28;20220;-81
2022/04/28 05:11:47;;;;;;;2.77;2.17;;;9.40;99.90;;;;;;4991383;28;20669;-81
2022/04/28 05:14:13;;;;;;;2.80;1.83;;;;;;;;;;4992143;28;20232;-81
2022/04/28 05:16:39;;;;;;;4.33;1.80;;;9.80;99.90;;;;;;4974385;28;20178;-81
2022/04/28 05:19:05;;;;;;;3.33;2.00;;;;;;;;;;4992339;28;20193;-82
2022/04/28 05:21:31;;;;;;;3.13;2.50;;;;;;;;;;4994735;28;20268;-81
2022/04/28 05:23:57;;;;;;;2.13;1.87;;;9.60;99.90;;;;;;5001199;28;20197;-81
2022/04/28 05:26:23;;;;;;;4.00;1.87;;;;;;;;;;4997272;28;20204;-81
2022/04/28 05:28:48;;;;;;;3.30;2.30;;;10.00;99.90;;;;;;4998190;28;20222;-81
2022/04/28 05:31:14;;;;;;;2.13;1.70;;;;;;;;;;4950532;28;20663;-81
2022/04/28 05:33:42;;;;;;;2.37;1.77;;;10.00;99.90;;;;;;5002510;28;20216;-81
2022/04/28 05:36:09;;;;;;;2.07;1.63;;;10.10;99.90;;;;;;4998841;28;20589;-80
2022/04/28 05:38:39;;;;;;;2.95;1.63;;;10.00;99.90;;;;;;4993118;28;20189;-81
2022/04/28 05:41:06;;;;;;;4.37;2.17;;;10.60;99.90;;;;;;4992705;28;20198;-81
2022/04/28 05:46:19;;;;;;;4.23;1.83;;;10.00;99.90;;;;;;4998277;28;20211;-81
2022/04/28 05:48:45;;;;;;;2.60;1.87;;;;;;;;;;4986773;28;20201;-81
2022/04/28 05:51:12;;;;;;;3.63;2.22;;;10.50;99.90;;;;;;4988811;28;20223;-81
2022/04/28 05:53:38;;;;;;;2.47;2.20;;;;;;;;;;4989250;28;20630;-82
2022/04/28 05:56:04;;;;;;;2.13;1.83;;;;;;;;;;4986128;28;20193;-82
2022/04/28 05:58:30;;;;;;;2.75;1.45;;;10.50;99.90;;;;;;4986547;28;20272;-81
2022/04/28 06:00:56;;;;;;;4.38;1.85;;;;;;;;;;5008710;28;20273;-81
2022/04/28 06:03:22;;;;;;;7.50;2.90;;;;;;;;;;4971536;28;20189;-80
2022/04/28 06:05:47;;;;;;;3.67;2.58;;;11.00;99.90;;;;;;4979284;28;20182;-79
2022/04/28 06:08:13;;;;;;;4.07;2.38;;;11.10;99.90;;;;;;4979347;28;20542;-81
2022/04/28 06:10:39;;;;;;;2.78;1.88;;;11.10;99.90;;;;;;4979168;28;20639;-81
2022/04/28 06:13:05;;;;;;;4.82;2.35;;;;;;;;;;4996625;28;20178;-82
2022/04/28 06:15:30;;;;;;;2.20;1.73;;;11.50;99.90;;;;;;4996578;28;20178;-80
2022/04/28 06:17:56;;;;;;;2.60;2.20;;;12.00;99.90;;;;;;4996149;28;20478;-80
2022/04/28 06:20:22;;;;;;;3.80;2.40;;;;;;;;;;4983062;28;20662;-80
2022/04/28 06:22:48;;;;;;;3.33;2.15;;;11.80;99.90;;;;;;4996694;28;20186;-80
2022/04/28 06:25:14;;;;;;;3.53;2.15;;;;;;;;;;4996582;28;20186;-79
2022/04/28 06:27:40;;;;;;;2.33;1.63;;;12.00;99.90;;;;;;5001858;28;20178;-81
2022/04/28 06:30:07;;;;;;;2.25;1.95;;;12.20;99.90;;;;;;4991223;28;20221;-80
2022/04/28 06:32:32;;;;;;;2.55;2.00;;;12.60;99.90;;;;;;5008707;28;20170;-81
2022/04/28 06:34:59;;;;;;;3.53;1.90;;;;;;;;;;5009661;28;20408;-80
2022/04/28 06:37:24;;;;;;;1.90;1.70;;;12.60;99.90;;;;;;5011888;28;20279;-79
2022/04/28 06:39:50;;;;;;;5.15;2.58;;;;;;;;;;5019119;28;20162;-79
2022/04/28 06:42:16;;;;;;;3.08;1.92;;;;;;;;;;5001773;28;20189;-78
2022/04/28 06:44:42;;;;;;;9.43;2.28;;;12.40;99.90;;;;;;5019396;28;20174;-86
2022/04/28 06:47:08;;;;;;;3.35;2.03;;;12.50;99.90;;;;;;4992078;28;20190;-82
2022/04/28 06:49:34;;;;;;;1.98;1.75;;;;;;;;;;4998125;28;20221;-82
2022/04/28 06:52:00;;;;;;;2.70;1.50;;;12.80;99.90;;;;;;5011312;28;20242;-87
2022/04/28 06:54:26;;;;;;;2.08;1.50;;;13.00;99.90;;;;;;5019384;28;20249;-87
2022/04/28 06:56:52;;;;;;;2.83;1.25;;;;;;;;;;5018756;28;20212;-82
2022/04/28 06:59:20;;;;;;;2.30;1.52;;;;;;;;;;5007992;28;20201;-82
2022/04/28 07:01:46;;;;;;;1.17;1.08;;;;;;;;;;4997159;28;20178;-83
2022/04/28 07:04:12;;;;;;;0.95;0.80;;;;;;;;;;4960246;28;20193;-83
2022/04/28 07:06:38;;;;;;;1.50;1.13;;;13.40;99.90;;;;;;4960803;28;20213;-82
2022/04/28 07:09:04;;;;;;;1.25;1.20;;;;;;;;;;4995211;28;20245;-81
2022/04/28 07:11:30;;;;;;;3.60;2.05;;;;;;;;;;4994873;28;20182;-82
2022/04/28 07:13:56;;;;;;;3.08;1.25;;;;;;;;;;4993773;28;20182;-83
2022/04/28 07:16:22;;;;;;;3.05;1.45;;;;;;;;;;4991660;28;20650;-82
2022/04/28 07:18:47;;;;;;;1.92;1.50;;;13.80;98.90;;;;;;4994328;28;20178;-83
2022/04/28 07:21:13;;;;;;;1.98;1.45;;;;;;;;;;4994115;28;20182;-82
2022/04/28 07:23:39;;;;;;;0.93;0.93;;;14.00;99.90;;;;;;4994195;28;20639;-81
2022/04/28 07:26:05;;;;;;;1.15;1.00;;;;;;;;;;4994257;28;20285;-82
2022/04/28 07:28:31;;;;;;;1.67;1.40;;;14.50;96.20;;;;;;4993753;28;20182;-83
2022/04/28 07:30:57;;;;;;;2.58;1.42;;;;;;;;;;4993505;28;20701;-82
2022/04/28 07:33:23;;;;;;;2.15;1.67;;;14.00;99.90;;;;;;4976487;28;20185;-82
2022/04/28 07:35:49;;;;;;;2.83;1.30;;;14.30;93.70;;;;;;4976054;28;20225;-83
2022/04/28 07:38:15;;;;;;;1.77;1.17;;;;;;;;;;4993702;28;20252;-82
2022/04/28 07:40:41;;;;;;;0.90;0.82;;;14.30;98.20;;;;;;4994441;28;20230;-82
2022/04/28 07:43:07;;;;;;;3.08;1.25;;;;;;;;;;4993894;28;20206;-82
2022/04/28 07:45:33;;;;;;;1.15;1.00;;;14.90;93.50;;;;;;4993209;28;20277;-82
2022/04/28 07:47:59;;;;;;;3.38;1.45;;;;;;;;;;4993887;28;20762;-83
2022/04/28 07:50:24;;;;;;;1.60;1.17;;;14.50;96.10;;;;;;4994490;28;20214;-82
2022/04/28 07:52:51;;;;;;;1.77;1.30;;;14.80;87.20;;;;;;4994714;28;20197;-82
2022/04/28 07:55:16;;;;;;;0.90;0.85;;;14.70;93.10;;;;;;4976804;28;20189;-82
2022/04/28 07:57:42;;;;;;;1.05;0.88;;;;;;;;;;4994397;28;20178;-82
2022/04/28 08:00:09;;;;;;;1.25;0.90;;;14.80;92.90;;;;;;4994194;28;20686;-82
2022/04/28 08:02:38;;;;;;;1.60;0.85;;;15.00;90.50;;;;;;4994339;28;20591;-82
2022/04/28 08:05:05;;;;;;;0.70;0.70;;;15.10;90.00;;;;;;4992203;28;20526;-82
2022/04/28 08:07:32;;;;;;;2.80;1.30;;;;;;;;;;4994312;28;20181;-82
2022/04/28 08:09:58;;;;;;;1.73;1.48;;;15.00;90.70;;;;;;4992708;28;20222;-82
2022/04/28 08:12:24;;;;;;;4.68;2.65;;;15.30;78.30;;;;;;4994237;28;20180;-82
2022/04/28 08:14:50;;;;;;;3.72;1.90;;;;;;;;;;4960682;28;20190;-82
2022/04/28 08:17:15;;;;;;;1.10;1.00;;;15.70;87.20;;;;;;4993404;28;20182;-83
2022/04/28 08:19:42;;;;;;;3.58;0.93;;;;;;;;;;4993551;28;20529;-82
2022/04/28 08:22:08;;;;;;;1.10;1.00;;;15.30;81.40;;;;;;4993438;28;20170;-83
2022/04/28 08:24:34;;;;;;;1.05;0.88;;;14.50;69.20;;;;;;4993831;28;20239;-82
2022/04/28 08:27:00;;;;;;;1.20;1.10;;;15.20;89.60;;;;;;4976133;28;20229;-82
2022/04/28 08:29:26;;;;;;;1.23;0.90;;;;;;;;;;4993777;28;20633;-81
2022/04/28 08:31:52;;;;;;;3.13;1.30;;;;;;;;;;4992367;28;20276;-85
2022/04/28 08:34:19;;;;;;;1.33;1.13;;;;;;;;;;4993475;28;20274;-81
2022/04/28 08:36:45;;;;;;;3.42;1.17;;;15.70;91.80;;;;;;4993858;28;20229;-82
2022/04/28 08:39:12;;;;;;;1.33;1.10;;;15.70;91.40;;;;;;4993545;28;20205;-81
2022/04/28 08:41:45;;;;;;;0.80;0.80;;;15.60;90.40;;;;;;4976052;28;20193;-81
2022/04/28 08:44:22;;;;;;;6.43;1.10;;;15.50;66.90;;;;;;4993510;28;20204;-82
2022/04/28 08:46:51;;;;;;;1.30;1.15;;;15.30;66.80;;;;;;4993820;28;20268;-81
2022/04/28 08:49:23;;;;;;;1.60;1.20;;;15.10;66.90;;;;;;4992041;28;20736;-82
2022/04/28 08:51:51;;;;;;;1.60;1.40;;;14.90;71.10;;;;;;4976105;28;20170;-82
2022/04/28 08:54:17;;;;;;;1.35;1.15;;;14.50;89.50;;;;;;4992079;28;20225;-82
2022/04/28 08:56:44;;;;;;;2.25;1.30;;;;;;;;;;4993599;28;20182;-81
2022/04/28 08:59:10;;;;;;;1.95;1.50;;;14.60;94.90;;;;;;4992963;28;20221;-81
2022/04/28 09:01:36;;;;;;;1.52;1.17;;;;;;;;;;4993708;28;20209;-81
2022/04/28 09:04:04;;;;;;;1.00;0.90;;;;;;;;;;4993249;28;20182;-81
2022/04/28 09:06:34;;;;;;;2.05;1.30;;;15.20;87.30;;;;;;4993416;28;20181;-81
2022/04/28 09:09:01;;;;;;;1.90;1.40;;;15.10;85.50;;;;;;4993299;28;20209;-82
2022/04/28 09:11:28;;;;;;;2.95;1.65;;;14.90;74.70;;;;;;4976057;28;20536;-81
2022/04/28 09:14:11;;;;;;;2.30;1.27;;;14.70;76.30;;;;;;4993546;28;20182;-80
2022/04/28 09:16:44;;;;;;;1.65;1.55;;;15.20;86.20;;;;;;4997132;28;20215;-80
2022/04/28 09:19:13;;;;;;;2.38;1.23;;;14.90;74.10;;;;;;4979205;28;20209;-80
2022/04/28 09:21:40;;;;;;;3.33;1.35;;;15.10;83.70;;;;;;4997122;28;20280;-80
2022/04/28 09:24:06;;;;;;;1.30;0.90;;;14.60;83.70;;;;;;4996486;28;20200;-81
2022/04/28 09:26:34;;;;;;;1.42;1.30;;;15.10;72.30;;;;;;4979917;28;20182;-81
2022/04/28 09:29:04;;;;;;;1.33;1.20;;;15.00;70.00;;;;;;4996690;28;20237;-84
2022/04/28 09:31:34;;;;;;;1.35;1.23;;;15.00;80.00;;;;;;4996890;28;20257;-80
2022/04/28 09:34:08;;;;;;;1.45;1.17;;;14.90;74.80;;;;;;4996739;28;20170;-82
2022/04/28 09:36:34;;;;;;;3.80;0.90;;;14.70;77.80;;;;;;4997259;28;20248;-81
2022/04/28 09:39:00;;;;;;;1.73;1.27;;;;;;;;;;4996745;28;20196;-86
2022/04/28 09:44:12;;;;;;;1.95;1.38;;;15.80;79.30;;;;;;4991398;28;20174;-81
2022/04/28 09:46:46;;;;;;;1.23;1.10;;;15.60;79.40;;;;;;4979582;28;20255;-82
2022/04/28 09:49:13;;;;;;;2.75;1.48;;;15.80;68.80;;;;;;4978967;28;20348;-81
2022/04/28 09:51:41;;;;;;;1.92;1.17;;;15.80;81.00;;;;;;4979166;28;20241;-81
2022/04/28 09:54:12;;;;;;;1.67;1.20;;;15.60;81.10;;;;;;4996366;28;20221;-81
2022/04/28 09:56:38;;;;;;;1.50;1.05;;;15.60;81.10;;;;;;4996322;28;20173;-81
2022/04/28 09:59:06;;;;;;;1.23;1.08;;;16.10;79.00;;;;;;4996186;28;20189;-83
2022/04/28 10:01:33;;;;;;;1.30;1.17;;;15.70;84.80;;;;;;4996301;28;20521;-81
2022/04/28 10:03:59;;;;;;;2.00;1.20;;;15.80;84.50;;;;;;4996096;28;20248;-81
2022/04/28 10:06:26;;;;;;;3.25;2.00;;;15.50;85.60;;;;;;4995870;28;20578;-80
2022/04/28 10:08:52;;;;;;;1.98;1.58;;;15.30;87.90;;;;;;4995987;28;20654;-80
2022/04/28 10:11:24;;;;;;;1.58;1.40;;;15.00;85.40;;;;;;4995943;28;20178;-81
2022/04/28 10:13:51;;;;;;;4.50;2.00;;;15.10;87.40;;;;;;4996002;28;20170;-80
2022/04/28 10:16:18;;;;;;;4.22;2.15;;;15.00;87.80;;;;;;4994548;28;20248;-80
2022/04/28 10:18:52;;;;;;;2.05;1.65;;;15.50;90.10;;;;;;4996312;28;20201;-80
2022/04/28 10:21:22;;;;;;;2.05;1.58;;;14.80;87.40;;;;;;4995656;28;20650;-82
2022/04/28 10:32:55;;;;;;;1.55;1.45;;;;;;;;;;4989535;28;20220;-81
2022/04/28 10:35:54;;;;;;;2.03;1.27;;;14.60;89.90;;;;;;5005665;28;20174;-81
2022/04/28 10:38:22;;;;;;;1.95;1.45;;;14.90;88.90;;;;;;5015139;28;20166;-82
2022/04/28 10:41:25;;;;;;;1.40;1.25;;;14.70;97.30;;;;;;5015198;28;20174;-82
2022/04/28 10:43:52;;;;;;;2.63;1.45;;;14.90;96.10;;;;;;5015425;28;20220;-81
2022/04/28 10:46:22;;;;;;;3.78;1.60;;;14.90;90.80;;;;;;4981275;28;20189;-82
2022/04/28 10:48:52;;;;;;;3.90;1.58;;;14.40;94.00;;;;;;5014729;28;20169;-82
2022/04/28 10:51:22;;;;;;;2.75;1.08;;;15.50;99.90;;;;;;5014568;28;20197;-82
2022/04/28 10:54:07;;;;;;;1.45;1.30;;;15.40;91.90;;;;;;4997765;28;20177;-81
2022/04/28 10:56:42;;;;;;;1.92;1.67;;;14.60;85.30;;;;;;4996873;28;20209;-79
2022/04/28 10:59:34;;;;;;;4.32;1.73;;;14.70;85.90;;;;;;5013653;28;20185;-81
2022/04/28 11:02:13;;;;;;;1.50;1.40;;;15.30;87.70;;;;;;4995429;28;20163;-81
2022/04/28 11:04:40;;;;;;;2.67;1.75;;;14.90;75.60;;;;;;4995357;28;20177;-81
2022/04/28 11:07:11;;;;;;;0.98;0.88;;;15.00;83.70;;;;;;4994927;28;20561;-81
2022/04/28 11:09:43;;;;;;;3.00;1.45;;;14.90;84.90;;;;;;4995122;28;20213;-81
2022/04/28 11:12:12;;;;;;;3.50;1.75;;;15.00;84.40;;;;;;4994902;28;20180;-81
2022/04/28 11:14:59;;;;;;;2.40;1.45;;;15.20;85.20;;;;;;4994808;28;20178;-81
2022/04/28 11:17:28;;;;;;;3.38;1.63;;;14.90;86.00;;;;;;4962591;28;20248;-81
2022/04/28 11:19:54;;;;;;;3.53;1.58;;;14.90;85.70;;;;;;4995151;28;20212;-81
2022/04/28 11:22:21;;;;;;;1.58;1.17;;;14.80;75.40;;;;;;4994553;28;20228;-81
2022/04/28 11:24:48;;;;;;;2.25;1.10;;;15.50;90.20;;;;;;4977789;28;20639;-81
2022/04/28 11:27:27;;;;;;;4.93;1.30;;;14.80;87.60;;;;;;4994401;28;20190;-81
2022/04/28 11:29:58;;;;;;;2.67;1.15;;;14.80;86.80;;;;;;4994819;28;20202;-81
2022/04/28 11:32:25;;;;;;;1.90;1.58;;;14.60;91.50;;;;;;4994246;28;20689;-81
2022/04/28 11:34:52;;;;;;;2.30;1.52;;;14.50;95.20;;;;;;4993480;28;20174;-81
2022/04/28 11:37:18;;;;;;;3.25;1.80;;;;;;;;;;4994724;28;20225;-80
2022/04/28 11:39:45;;;;;;;2.80;1.83;;;14.00;99.90;;;;;;4993496;28;20611;-80
2022/04/28 11:42:18;;;;;;;2.08;1.67;;;13.60;99.90;;;;;;5002245;28;20177;-80
2022/04/28 11:44:51;;;;;;;1.98;1.70;;;13.90;99.90;;;;;;5002470;28;20174;-80
2022/04/28 11:47:20;;;;;;;2.28;1.70;;;13.90;99.90;;;;;;5001471;28;20174;-80
2022/04/28 11:49:49;;;;;;;2.88;2.00;;;14.00;99.90;;;;;;5002937;28;20209;-80
2022/04/28 11:52:26;;;;;;;2.33;1.73;;;14.10;99.90;;;;;;5000887;28;20182;-81
2022/04/28 11:55:01;;;;;;;3.08;1.95;;;14.20;99.90;;;;;;4999766;28;20215;-80
2022/04/28 11:57:27;;;;;;;4.00;2.15;;;14.70;99.90;;;;;;4997338;28;20213;-80
2022/04/28 11:59:54;;;;;;;2.13;1.75;;;15.20;99.90;;;;;;4994377;28;20281;-80
2022/04/28 12:02:32;;;;;;;3.00;1.80;;;14.90;99.90;;;;;;4994436;28;20178;-80
2022/04/28 12:05:00;;;;;;;1.75;1.65;;;15.20;99.90;;;;;;4994325;28;20319;-81
2022/04/28 12:07:34;;;;;;;2.25;1.70;;;15.70;93.90;;;;;;4994285;28;20186;-81
2022/04/28 12:15:29;;;;;;;1.75;1.40;;;16.50;86.60;;;;;;4993987;28;20173;-81
2022/04/28 12:20:57;;;;;;;2.17;1.83;;;16.80;84.60;;;;;;4994131;28;20188;-81
2022/04/28 12:23:33;;;;;;;1.85;1.20;;;16.90;73.70;;;;;;4995184;28;20258;-81
2022/04/28 12:26:00;;;;;;;2.08;1.50;;;16.90;89.60;;;;;;5014082;28;20180;-81
2022/04/28 12:28:34;;;;;;;2.13;1.80;;;16.60;88.80;;;;;;5007066;28;20181;-81
2022/04/28 12:31:02;;;;;;;1.83;1.20;;;16.50;83.30;;;;;;4992186;28;20214;-81
2022/04/28 12:33:28;;;;;;;2.58;1.52;;;16.30;71.40;;;;;;4997381;28;20236;-81
2022/04/28 12:36:01;;;;;;;4.10;1.40;;;16.10;68.90;;;;;;4965348;28;20241;-83
2022/04/28 12:38:28;;;;;;;2.35;1.80;;;16.20;84.10;;;;;;4999544;28;20205;-82
2022/04/28 12:40:54;;;;;;;1.67;1.52;;;16.30;85.70;;;;;;5018385;28;20166;-81
2022/04/28 12:43:37;;;;;;;2.47;1.80;;;15.90;68.70;;;;;;5018277;28;20166;-84
2022/04/28 12:46:06;;;;;;;1.98;1.40;;;16.20;86.80;;;;;;5009485;28;20177;-81
2022/04/28 12:48:36;;;;;;;2.55;1.63;;;15.80;85.80;;;;;;5001355;28;20181;-81
2022/04/28 12:51:09;;;;;;;2.08;1.17;;;16.10;91.70;;;;;;5013147;28;20197;-81
2022/04/28 12:53:36;;;;;;;2.92;1.92;;;15.20;91.80;;;;;;5021097;28;20188;-81
2022/04/28 12:56:07;;;;;;;3.08;1.90;;;15.00;91.80;;;;;;5021498;28;20237;-80
2022/04/28 12:58:45;;;;;;;3.13;1.88;;;15.40;90.40;;;;;;5011433;28;20324;-81
2022/04/28 13:01:13;;;;;;;1.85;1.50;;;15.70;91.80;;;;;;4999652;28;20730;-82
2022/04/28 13:03:40;;;;;;;1.38;1.27;;;15.90;85.90;;;;;;4999821;28;20204;-81
2022/04/28 13:06:06;;;;;;;1.88;1.67;;;15.40;79.30;;;;;;4998544;28;20243;-81
2022/04/28 13:08:32;;;;;;;2.85;1.75;;;15.70;80.40;;;;;;4998057;28;20182;-82
2022/04/28 13:10:58;;;;;;;1.40;1.20;;;15.70;66.60;;;;;;4980319;28;20696;-82
2022/04/28 13:13:24;;;;;;;2.28;1.70;;;;;;;;;;4980165;28;20194;-84
2022/04/28 13:15:50;;;;;;;3.03;2.28;;;16.20;71.10;;;;;;4997634;28;20205;-82
2022/04/28 13:18:16;;;;;;;2.22;1.65;;;16.20;76.90;;;;;;4979978;28;20182;-82
2022/04/28 13:20:41;;;;;;;2.95;1.60;;;16.50;80.00;;;;;;4997548;28;20185;-80
2022/04/28 13:23:07;;;;;;;1.80;1.60;;;;;;;;;;4998088;28;20236;-82
2022/04/28 13:25:33;;;;;;;6.32;1.70;;;16.80;88.30;;;;;;4997612;28;20178;-82
2022/04/28 13:27:59;;;;;;;1.73;1.55;;;;;;;;;;4980372;28;20220;-82
2022/04/28 13:30:25;;;;;;;2.85;1.73;;;;;;;;;;4979538;28;20244;-83
2022/04/28 13:32:51;;;;;;;2.20;1.55;;;16.20;90.50;;;;;;4979363;28;20608;-84
2022/04/28 13:35:17;;;;;;;3.30;2.30;;;;;;;;;;4996521;28;20221;-84
2022/04/28 13:37:43;;;;;;;2.38;2.17;;;15.80;76.30;;;;;;4996824;28;20174;-83
2022/04/28 13:40:09;;;;;;;4.72;2.08;;;15.60;76.80;;;;;;4996665;28;20193;-83
2022/04/28 13:42:35;;;;;;;2.83;1.50;;;;;;;;;;4972906;28;20193;-83
2022/04/28 13:45:00;;;;;;;2.58;1.85;;;15.70;75.80;;;;;;4985924;28;20196;-83
2022/04/28 13:47:27;;;;;;;3.22;1.80;;;;;;;;;;4996085;28;20182;-82
2022/04/28 13:49:55;;;;;;;5.15;2.70;;;16.20;74.50;;;;;;4995816;28;20232;-82
2022/04/28 13:52:22;;;;;;;3.33;2.28;;;;;;;;;;4995805;28;20197;-82
2022/04/28 13:54:48;;;;;;;2.60;1.75;;;;;;;;;;4994081;28;20690;-83
2022/04/28 13:57:14;;;;;;;4.95;2.15;;;;;;;;;;4977925;28;20547;-84
2022/04/28 13:59:40;;;;;;;3.03;1.67;;;18.20;69.00;;;;;;4995106;28;20650;-84
2022/04/28 14:02:07;;;;;;;3.15;2.00;;;19.00;69.30;;;;;;4994058;28;20189;-84
2022/04/28 14:04:33;;;;;;;3.10;2.10;;;18.90;71.90;;;;;;4977923;28;20178;-83
2022/04/28 14:06:59;;;;;;;2.17;1.55;;;;;;;;;;4977994;28;20554;-82